Terminal Aerodrome Forecast
Issued by NWS

Home | Current Version | Previous Version | Text Only | Print | Product List | Glossary On
Versions: 1 2 3 4 5 6 7 8 9 10 11 12 13 14 15 16 17 18 19 20 21 22 23 24 25 26 27 28 29 30 31 32 33 34 35 36
048
FTUS41 KGYX 200903 AAB
TAFPSM
TAF AMD
KPSM 200903Z 2009/2106 01012G20KT 1/2SM SN OVC004
     FM201300 06014G24KT 1SM -SNPL OVC004
     FM201500 05013G22KT 1SM -FZRAPL OVC003
     FM202300 31014G34KT P6SM BKN025 OVC045=

USA.gov is the U.S. government's official web portal to all federal, state and local government web resources and services.